createdAt,value
2017-08-12T00:01:00.924Z,21.80
2017-08-12T00:03:28.883Z,21.79
2017-08-12T00:05:56.534Z,21.83
2017-08-12T00:08:24.411Z,21.83
2017-08-12T00:10:52.073Z,21.81
2017-08-12T00:13:19.908Z,21.81
2017-08-12T00:15:47.651Z,21.83
2017-08-12T00:18:15.468Z,21.74
2017-08-12T00:20:43.129Z,21.76
2017-08-12T00:23:10.996Z,21.81
2017-08-12T00:25:38.866Z,21.72
2017-08-12T00:28:06.711Z,21.70
2017-08-12T00:30:34.655Z,21.98
2017-08-12T00:33:02.643Z,21.80
2017-08-12T00:35:36.478Z,21.80
2017-08-12T00:38:04.330Z,21.70
2017-08-12T00:40:32.212Z,21.60
2017-08-12T00:43:00.237Z,21.59
2017-08-12T00:45:28.129Z,21.60
2017-08-12T00:47:55.873Z,21.56
2017-08-12T00:50:23.839Z,21.49
2017-08-12T00:52:51.731Z,21.46
2017-08-12T00:55:19.409Z,21.54
2017-08-12T00:57:47.046Z,21.47
2017-08-12T01:00:14.943Z,21.45
2017-08-12T01:02:42.808Z,21.48
2017-08-12T01:05:10.877Z,21.45
2017-08-12T01:07:38.732Z,21.44
2017-08-12T01:10:06.453Z,21.43
2017-08-12T01:12:34.421Z,21.44
2017-08-12T01:15:02.137Z,21.40
2017-08-12T01:17:29.854Z,21.27
2017-08-12T01:19:57.843Z,21.26
2017-08-12T01:22:25.741Z,21.28
2017-08-12T01:24:53.398Z,21.21
2017-08-12T01:27:21.245Z,21.27
2017-08-12T01:29:48.937Z,21.35
2017-08-12T01:32:16.779Z,21.20
2017-08-12T01:34:44.844Z,21.11
2017-08-12T01:37:12.712Z,21.04
2017-08-12T01:39:40.657Z,21.09
2017-08-12T01:42:08.621Z,21.17
2017-08-12T01:44:36.614Z,21.06
2017-08-12T01:47:04.556Z,21.14
2017-08-12T01:49:32.448Z,21.04
2017-08-12T01:52:00.216Z,21.04
2017-08-12T01:54:28.182Z,21.05
2017-08-12T01:56:55.926Z,21.01
2017-08-12T01:59:23.951Z,20.98
2017-08-12T02:01:51.614Z,20.95
2017-08-12T02:04:19.603Z,20.88
2017-08-12T02:06:47.549Z,20.88
2017-08-12T02:09:15.285Z,20.89
2017-08-12T02:11:43.953Z,20.85
2017-08-12T02:14:11.753Z,20.92
2017-08-12T02:16:39.488Z,20.82
2017-08-12T02:19:07.291Z,20.70
2017-08-12T02:21:35.020Z,20.79
2017-08-12T02:24:02.825Z,20.77
2017-08-12T02:26:30.652Z,20.76
2017-08-12T02:28:58.554Z,20.75
2017-08-12T02:31:26.421Z,20.74
2017-08-12T02:33:54.132Z,20.68
2017-08-12T02:36:22.156Z,20.60
2017-08-12T02:38:49.988Z,20.73
2017-08-12T02:41:17.733Z,20.79
2017-08-12T02:43:45.598Z,20.73
2017-08-12T02:46:13.590Z,20.62
2017-08-12T02:48:41.335Z,20.51
2017-08-12T02:51:09.150Z,20.34
2017-08-12T02:53:37.220Z,20.29
2017-08-12T02:56:04.874Z,20.26
2017-08-12T02:58:32.723Z,20.23
2017-08-12T03:01:00.469Z,20.33
2017-08-12T03:03:28.485Z,20.24
2017-08-12T03:05:56.454Z,20.20
2017-08-12T03:08:24.222Z,20.30
2017-08-12T03:10:52.057Z,20.20
2017-08-12T03:13:19.956Z,20.25
2017-08-12T03:15:47.614Z,20.20
2017-08-12T03:18:15.635Z,20.10
2017-08-12T03:20:43.398Z,20.27
2017-08-12T03:23:11.370Z,20.31
2017-08-12T03:25:39.187Z,20.33
2017-08-12T03:28:07.006Z,20.35
2017-08-12T03:30:35.022Z,20.49
2017-08-12T03:33:03.039Z,20.47
2017-08-12T03:35:30.961Z,20.38
2017-08-12T03:37:58.796Z,20.44
2017-08-12T03:40:26.541Z,20.46
2017-08-12T03:42:54.357Z,20.58
2017-08-12T03:45:22.007Z,20.58
2017-08-12T03:47:49.869Z,20.65
2017-08-12T03:50:17.493Z,20.76
2017-08-12T03:52:45.351Z,20.82
2017-08-12T03:55:13.280Z,21.03
2017-08-12T03:57:41.209Z,21.97
2017-08-12T04:00:09.217Z,23.04
2017-08-12T04:02:36.869Z,24.03
2017-08-12T04:05:04.611Z,24.89
2017-08-12T04:07:32.528Z,25.62
2017-08-12T04:10:00.481Z,26.47
2017-08-12T04:12:28.212Z,27.49
2017-08-12T04:14:56.202Z,27.85
2017-08-12T04:17:24.022Z,27.15
2017-08-12T04:19:51.863Z,27.82
2017-08-12T04:22:19.706Z,28.34
2017-08-12T04:24:47.375Z,28.85
2017-08-12T04:27:14.992Z,29.19
2017-08-12T04:29:42.613Z,29.28
2017-08-12T04:32:10.267Z,29.30
2017-08-12T04:34:37.864Z,30.08
2017-08-12T04:37:05.582Z,30.71
2017-08-12T04:39:33.657Z,31.66
2017-08-12T04:42:01.490Z,31.67
2017-08-12T04:44:29.386Z,32.18
2017-08-12T04:46:57.073Z,32.28
2017-08-12T04:49:24.736Z,32.86
2017-08-12T04:51:52.340Z,33.51
2017-08-12T04:54:19.991Z,34.04
2017-08-12T04:56:47.594Z,34.56
2017-08-12T04:59:15.218Z,35.15
2017-08-12T05:01:42.866Z,35.31
2017-08-12T05:04:10.483Z,35.29
2017-08-12T05:06:38.094Z,36.08
2017-08-12T05:09:05.735Z,37.20
2017-08-12T05:11:33.358Z,37.04
2017-08-12T05:14:00.984Z,37.10
2017-08-12T05:16:28.659Z,37.15
2017-08-12T05:18:56.313Z,36.99
2017-08-12T05:21:23.966Z,37.74
2017-08-12T05:23:51.779Z,38.44
2017-08-12T05:26:19.380Z,39.48
2017-08-12T05:28:47.004Z,38.29
2017-08-12T05:31:14.670Z,39.67
2017-08-12T05:33:42.280Z,40.73
2017-08-12T05:36:09.912Z,40.90
2017-08-12T05:38:37.572Z,40.22
2017-08-12T05:41:05.215Z,40.89
2017-08-12T05:43:32.840Z,41.27
2017-08-12T05:46:00.482Z,41.80
2017-08-12T05:48:28.135Z,42.09
2017-08-12T05:50:55.784Z,42.04
2017-08-12T05:53:23.445Z,42.74
2017-08-12T05:55:51.119Z,43.09
2017-08-12T05:58:18.741Z,42.58
2017-08-12T06:00:46.473Z,42.60
2017-08-12T06:03:14.073Z,41.86
2017-08-12T06:05:41.669Z,41.66
2017-08-12T06:08:09.309Z,42.51
2017-08-12T06:10:36.913Z,42.35
2017-08-12T06:13:04.511Z,42.95
2017-08-12T06:15:32.180Z,42.94
2017-08-12T06:17:59.794Z,42.96
2017-08-12T06:20:27.389Z,42.01
2017-08-12T06:22:55.224Z,41.72
2017-08-12T06:25:22.838Z,42.61
2017-08-12T06:27:50.437Z,43.43
2017-08-12T06:30:18.096Z,43.36
2017-08-12T06:32:45.698Z,44.13
2017-08-12T06:35:13.311Z,44.12
2017-08-12T06:37:40.968Z,44.59
2017-08-12T06:40:08.550Z,45.06
2017-08-12T06:42:36.159Z,45.23
2017-08-12T06:45:03.934Z,45.97
2017-08-12T06:47:31.544Z,46.39
2017-08-12T06:49:59.198Z,46.71
2017-08-12T06:52:26.854Z,46.54
2017-08-12T06:54:54.485Z,43.46
2017-08-12T06:57:22.072Z,44.73
2017-08-12T06:59:49.901Z,44.87
2017-08-12T07:02:17.501Z,46.24
2017-08-12T07:04:45.117Z,46.76
2017-08-12T07:07:12.770Z,46.58
2017-08-12T07:09:40.374Z,45.42
2017-08-12T07:12:07.987Z,45.33
2017-08-12T07:14:35.632Z,44.65
2017-08-12T07:17:03.243Z,45.22
2017-08-12T07:19:30.845Z,45.57
2017-08-12T07:21:58.491Z,45.65
2017-08-12T07:24:26.097Z,45.62
2017-08-12T07:26:53.697Z,45.69
2017-08-12T07:29:21.363Z,44.73
2017-08-12T07:31:48.980Z,44.32
2017-08-12T07:34:16.583Z,44.26
2017-08-12T07:36:44.252Z,44.67
2017-08-12T07:39:11.854Z,44.35
2017-08-12T07:41:39.536Z,43.29
2017-08-12T07:44:07.178Z,42.94
2017-08-12T07:46:34.782Z,43.98
2017-08-12T07:49:02.386Z,43.54
2017-08-12T07:51:30.030Z,43.99
2017-08-12T07:53:57.743Z,43.61
2017-08-12T07:56:25.332Z,41.44
2017-08-12T07:58:52.979Z,42.46
2017-08-12T08:01:20.581Z,41.90
2017-08-12T08:03:48.321Z,42.39
2017-08-12T08:06:15.980Z,42.91
2017-08-12T08:08:43.599Z,43.56
2017-08-12T08:11:11.215Z,42.63
2017-08-12T08:13:38.854Z,43.46
2017-08-12T08:16:06.456Z,43.55
2017-08-12T08:18:34.085Z,43.29
2017-08-12T08:21:01.729Z,42.51
2017-08-12T08:23:29.325Z,43.60
2017-08-12T08:25:56.939Z,44.03
2017-08-12T08:28:24.586Z,41.59
2017-08-12T08:30:52.208Z,41.42
2017-08-12T08:33:19.827Z,40.80
2017-08-12T08:35:47.476Z,41.47
2017-08-12T08:38:15.088Z,42.18
2017-08-12T08:40:42.704Z,42.91
2017-08-12T08:43:10.346Z,41.58
2017-08-12T08:45:37.938Z,42.06
2017-08-12T08:48:05.536Z,43.08
2017-08-12T08:50:33.195Z,43.09
2017-08-12T08:53:00.877Z,42.45
2017-08-12T08:55:28.728Z,43.01
2017-08-12T08:57:56.370Z,43.54
2017-08-12T09:00:23.997Z,43.98
2017-08-12T09:02:51.604Z,44.13
2017-08-12T09:05:19.272Z,43.23
2017-08-12T09:07:46.892Z,42.58
2017-08-12T09:10:14.497Z,42.14
2017-08-12T09:12:42.137Z,41.57
2017-08-12T09:15:09.733Z,42.65
2017-08-12T09:17:37.330Z,42.70
2017-08-12T09:20:04.957Z,42.97
2017-08-12T09:22:32.603Z,41.71
2017-08-12T09:25:00.249Z,42.11
2017-08-12T09:27:27.908Z,41.58
2017-08-12T09:29:55.523Z,41.36
2017-08-12T09:32:23.132Z,41.74
2017-08-12T09:34:50.779Z,42.39
2017-08-12T09:37:18.404Z,42.03
2017-08-12T09:39:46.016Z,42.37
2017-08-12T09:42:13.779Z,42.08
2017-08-12T09:44:41.404Z,42.20
2017-08-12T09:47:09.005Z,42.79
2017-08-12T09:49:36.641Z,42.63
2017-08-12T09:52:04.225Z,42.98
2017-08-12T09:54:31.814Z,43.08
2017-08-12T09:56:59.513Z,42.62
2017-08-12T09:59:27.130Z,44.12
2017-08-12T10:01:54.744Z,44.90
2017-08-12T10:04:22.395Z,44.40
2017-08-12T10:06:50.020Z,43.64
2017-08-12T10:09:17.639Z,43.59
2017-08-12T10:11:45.366Z,42.83
2017-08-12T10:14:13.023Z,42.59
2017-08-12T10:16:40.645Z,42.88
2017-08-12T10:19:08.272Z,43.10
2017-08-12T10:21:35.895Z,43.08
2017-08-12T10:24:03.511Z,43.31
2017-08-12T10:26:31.168Z,43.03
2017-08-12T10:28:58.770Z,43.50
2017-08-12T10:31:26.378Z,41.38
2017-08-12T10:33:54.015Z,41.31
2017-08-12T10:36:21.632Z,42.36
2017-08-12T10:38:49.245Z,42.09
2017-08-12T10:41:16.907Z,42.60
2017-08-12T10:43:44.528Z,43.05
2017-08-12T10:46:12.120Z,43.10
2017-08-12T10:48:39.757Z,42.83
2017-08-12T10:51:07.371Z,42.41
2017-08-12T10:53:34.980Z,42.76
2017-08-12T10:56:02.639Z,43.38
2017-08-12T10:58:30.360Z,42.96
2017-08-12T11:00:57.983Z,43.00
2017-08-12T11:03:25.668Z,43.60
2017-08-12T11:05:53.262Z,43.58
2017-08-12T11:08:20.866Z,43.60
2017-08-12T11:10:48.559Z,43.84
2017-08-12T11:13:16.161Z,43.21
2017-08-12T11:15:43.763Z,44.33
2017-08-12T11:18:13.284Z,44.17
2017-08-12T11:20:40.890Z,44.59
2017-08-12T11:23:08.503Z,43.73
2017-08-12T11:25:36.150Z,43.09
2017-08-12T11:28:03.773Z,43.61
2017-08-12T11:30:31.383Z,44.47
2017-08-12T11:32:59.032Z,42.70
2017-08-12T11:35:26.647Z,43.09
2017-08-12T11:37:54.252Z,43.68
2017-08-12T11:40:21.876Z,43.90
2017-08-12T11:42:49.474Z,45.41
2017-08-12T11:45:17.079Z,45.02
2017-08-12T11:47:44.720Z,42.88
2017-08-12T11:50:12.332Z,43.32
2017-08-12T11:52:39.937Z,43.83
2017-08-12T11:55:07.583Z,43.76
2017-08-12T11:57:35.195Z,43.85
2017-08-12T12:00:02.871Z,44.06
2017-08-12T12:02:30.505Z,43.20
2017-08-12T12:04:58.109Z,43.88
2017-08-12T12:07:25.713Z,45.01
2017-08-12T12:09:53.375Z,44.12
2017-08-12T12:12:20.981Z,42.84
2017-08-12T12:14:48.583Z,42.94
2017-08-12T12:17:16.224Z,43.61
2017-08-12T12:19:43.828Z,44.00
2017-08-12T12:22:11.450Z,44.36
2017-08-12T12:24:39.292Z,44.67
2017-08-12T12:27:07.035Z,44.88
2017-08-12T12:29:35.051Z,44.24
2017-08-12T12:32:03.070Z,43.82
2017-08-12T12:34:30.889Z,43.37
2017-08-12T12:36:58.828Z,42.70
2017-08-12T12:39:26.569Z,43.14
2017-08-12T12:41:54.590Z,43.12
2017-08-12T12:44:22.200Z,42.82
2017-08-12T12:46:49.851Z,42.35
2017-08-12T12:49:17.466Z,42.58
2017-08-12T12:51:45.111Z,41.99
2017-08-12T12:54:12.760Z,41.71
2017-08-12T12:56:40.563Z,41.58
2017-08-12T12:59:08.192Z,40.84
2017-08-12T13:01:35.845Z,40.19
2017-08-12T13:04:03.465Z,39.50
2017-08-12T13:06:31.081Z,38.52
2017-08-12T13:08:58.733Z,37.97
2017-08-12T13:11:26.344Z,37.38
2017-08-12T13:13:53.950Z,37.39
2017-08-12T13:16:21.604Z,36.92
2017-08-12T13:18:49.452Z,36.66
2017-08-12T13:21:17.172Z,36.41
2017-08-12T13:23:44.888Z,36.37
2017-08-12T13:26:12.877Z,36.39
2017-08-12T13:28:40.783Z,36.45
2017-08-12T13:31:08.609Z,36.56
2017-08-12T13:33:36.478Z,36.78
2017-08-12T13:36:04.221Z,36.95
2017-08-12T13:38:32.090Z,36.83
2017-08-12T13:40:59.809Z,36.47
2017-08-12T13:43:27.781Z,36.42
2017-08-12T13:45:55.851Z,36.55
2017-08-12T13:48:23.561Z,36.71
2017-08-12T13:50:51.428Z,36.50
2017-08-12T13:53:19.452Z,36.24
2017-08-12T13:55:47.163Z,36.02
2017-08-12T13:58:15.186Z,36.11
2017-08-12T14:00:43.244Z,36.14
2017-08-12T14:03:11.312Z,36.10
2017-08-12T14:05:39.179Z,36.11
2017-08-12T14:08:06.897Z,36.08
2017-08-12T14:10:34.715Z,36.07
2017-08-12T14:13:02.558Z,36.08
2017-08-12T14:15:30.303Z,35.95
2017-08-12T14:17:58.167Z,35.80
2017-08-12T14:20:26.136Z,35.80
2017-08-12T14:22:53.951Z,35.73
2017-08-12T14:25:21.925Z,35.78
2017-08-12T14:27:49.638Z,35.73
2017-08-12T14:30:17.660Z,35.72
2017-08-12T14:32:45.422Z,35.68
2017-08-12T14:35:13.185Z,35.76
2017-08-12T14:37:41.030Z,35.74
2017-08-12T14:40:08.897Z,35.81
2017-08-12T14:42:36.572Z,35.82
2017-08-12T14:45:04.428Z,35.70
2017-08-12T14:47:32.315Z,35.62
2017-08-12T14:50:00.052Z,35.62
2017-08-12T14:52:28.034Z,35.43
2017-08-12T14:54:55.916Z,35.47
2017-08-12T14:57:23.747Z,35.39
2017-08-12T14:59:51.650Z,35.28
2017-08-12T15:02:19.351Z,35.23
2017-08-12T15:04:47.275Z,35.12
2017-08-12T15:07:15.040Z,35.11
2017-08-12T15:09:42.754Z,35.04
2017-08-12T15:12:10.781Z,35.00
2017-08-12T15:14:38.545Z,35.02
2017-08-12T15:17:06.144Z,34.90
2017-08-12T15:19:33.878Z,34.87
2017-08-12T15:22:01.765Z,34.76
2017-08-12T15:24:29.701Z,34.61
2017-08-12T15:26:57.367Z,34.63
2017-08-12T15:29:25.014Z,34.61
2017-08-12T15:31:52.896Z,34.50
2017-08-12T15:34:20.552Z,34.51
2017-08-12T15:36:48.424Z,34.39
2017-08-12T15:39:16.261Z,34.30
2017-08-12T15:41:43.950Z,34.28
2017-08-12T15:44:11.601Z,34.21
2017-08-12T15:46:39.277Z,34.10
2017-08-12T15:49:06.981Z,34.06
2017-08-12T15:51:34.818Z,34.05
2017-08-12T15:54:02.546Z,33.95
2017-08-12T15:56:30.535Z,33.84
2017-08-12T15:58:58.255Z,33.76
2017-08-12T16:01:26.266Z,33.69
2017-08-12T16:03:53.930Z,33.61
2017-08-12T16:06:21.790Z,33.52
2017-08-12T16:08:49.384Z,33.47
2017-08-12T16:11:16.939Z,33.40
2017-08-12T16:13:44.572Z,33.32
2017-08-12T16:16:12.437Z,33.22
2017-08-12T16:18:40.019Z,33.20
2017-08-12T16:21:07.773Z,33.03
2017-08-12T16:23:35.419Z,32.95
2017-08-12T16:26:03.266Z,32.87
2017-08-12T16:28:30.960Z,32.76
2017-08-12T16:30:58.831Z,32.70
2017-08-12T16:33:26.485Z,32.62
2017-08-12T16:35:54.335Z,32.49
2017-08-12T16:38:22.016Z,32.45
2017-08-12T16:40:49.605Z,32.35
2017-08-12T16:43:17.333Z,32.27
2017-08-12T16:45:45.181Z,32.11
2017-08-12T16:48:12.867Z,31.98
2017-08-12T16:50:40.948Z,31.82
2017-08-12T16:53:08.601Z,31.71
2017-08-12T16:55:36.208Z,31.60
2017-08-12T16:58:04.040Z,31.43
2017-08-12T17:00:31.796Z,31.30
2017-08-12T17:02:59.457Z,31.13
2017-08-12T17:05:27.123Z,31.01
2017-08-12T17:07:54.989Z,30.87
2017-08-12T17:10:22.709Z,30.75
2017-08-12T17:12:50.429Z,30.65
2017-08-12T17:15:18.239Z,30.50
2017-08-12T17:17:46.249Z,30.33
2017-08-12T17:20:13.882Z,30.17
2017-08-12T17:22:41.573Z,30.04
2017-08-12T17:25:09.272Z,29.89
2017-08-12T17:27:37.309Z,29.85
2017-08-12T17:30:04.968Z,29.73
2017-08-12T17:32:32.565Z,29.62
2017-08-12T17:35:01.116Z,29.44
2017-08-12T17:37:28.825Z,29.13
2017-08-12T17:39:56.412Z,28.86
2017-08-12T17:42:24.095Z,28.59
2017-08-12T17:44:51.822Z,28.39
2017-08-12T17:47:19.830Z,28.19
2017-08-12T17:49:47.481Z,28.09
2017-08-12T17:52:15.097Z,28.07
2017-08-12T17:54:42.917Z,28.04
2017-08-12T17:57:10.733Z,27.99
2017-08-12T17:59:38.761Z,27.89
2017-08-12T18:02:06.588Z,27.82
2017-08-12T18:04:34.289Z,27.69
2017-08-12T18:07:01.891Z,27.64
2017-08-12T18:09:29.872Z,27.59
2017-08-12T18:11:57.889Z,27.40
2017-08-12T18:14:25.547Z,27.27
2017-08-12T18:16:53.149Z,27.19
2017-08-12T18:19:20.988Z,27.27
2017-08-12T18:21:48.587Z,27.34
2017-08-12T18:24:16.169Z,27.37
2017-08-12T18:26:43.858Z,27.40
2017-08-12T18:29:11.581Z,27.46
2017-08-12T18:31:39.371Z,27.49
2017-08-12T18:34:07.211Z,27.52
2017-08-12T18:36:34.917Z,27.66
2017-08-12T18:39:02.623Z,27.92
2017-08-12T18:41:30.614Z,28.04
2017-08-12T18:43:58.312Z,28.06
2017-08-12T18:46:26.177Z,28.10
2017-08-12T18:48:54.245Z,27.98
2017-08-12T18:51:22.087Z,27.72
2017-08-12T18:53:49.729Z,27.78
2017-08-12T18:56:17.549Z,27.59
2017-08-12T18:58:45.366Z,27.31
2017-08-12T19:01:13.383Z,27.09
2017-08-12T19:03:41.029Z,26.89
2017-08-12T19:06:13.005Z,26.73
2017-08-12T19:08:40.663Z,26.56
2017-08-12T19:11:08.531Z,26.37
2017-08-12T19:13:36.366Z,26.30
2017-08-12T19:16:04.235Z,26.20
2017-08-12T19:18:31.916Z,26.13
2017-08-12T19:20:59.577Z,26.04
2017-08-12T19:23:27.249Z,26.01
2017-08-12T19:25:54.900Z,25.98
2017-08-12T19:28:22.573Z,25.83
2017-08-12T19:30:50.217Z,25.76
2017-08-12T19:33:17.891Z,25.71
2017-08-12T19:35:45.768Z,25.69
2017-08-12T19:38:13.427Z,25.70
2017-08-12T19:40:41.279Z,25.61
2017-08-12T19:43:08.958Z,25.59
2017-08-12T19:45:36.612Z,25.47
2017-08-12T19:48:04.274Z,25.34
2017-08-12T19:50:31.944Z,25.30
2017-08-12T19:52:59.598Z,25.27
2017-08-12T19:55:27.475Z,25.23
2017-08-12T19:57:55.054Z,25.18
2017-08-12T20:00:22.847Z,25.19
2017-08-12T20:02:50.669Z,25.30
2017-08-12T20:05:18.515Z,25.63
2017-08-12T20:07:46.195Z,25.73
2017-08-12T20:10:13.775Z,25.84
2017-08-12T20:12:41.722Z,25.88
2017-08-12T20:15:09.591Z,26.12
2017-08-12T20:17:37.270Z,26.22
2017-08-12T20:20:05.108Z,26.03
2017-08-12T20:22:32.990Z,26.10
2017-08-12T20:25:00.639Z,26.09
2017-08-12T20:27:28.301Z,26.17
2017-08-12T20:29:55.975Z,26.08
2017-08-12T20:32:23.696Z,25.99
2017-08-12T20:34:51.484Z,26.02
2017-08-12T20:37:19.351Z,25.92
2017-08-12T20:39:47.071Z,25.77
2017-08-12T20:42:15.102Z,25.72
2017-08-12T20:44:42.952Z,25.76
2017-08-12T20:47:10.836Z,25.70
2017-08-12T20:49:38.484Z,25.63
2017-08-12T20:52:06.154Z,25.45
2017-08-12T20:54:33.870Z,25.16
2017-08-12T20:57:01.889Z,25.03
2017-08-12T20:59:29.755Z,24.88
2017-08-12T21:01:57.422Z,24.68
2017-08-12T21:04:25.464Z,24.41
2017-08-12T21:06:53.205Z,24.35
2017-08-12T21:09:21.228Z,24.20
2017-08-12T21:11:48.944Z,24.11
2017-08-12T21:14:16.861Z,24.01
2017-08-12T21:16:44.680Z,23.85
2017-08-12T21:19:12.694Z,23.72
2017-08-12T21:21:40.534Z,23.54
2017-08-12T21:24:08.436Z,23.52
2017-08-12T21:26:36.318Z,23.47
2017-08-12T21:29:04.061Z,23.42
2017-08-12T21:31:31.661Z,23.38
2017-08-12T21:33:59.523Z,23.37
2017-08-12T21:36:27.638Z,23.48
2017-08-12T21:38:55.383Z,23.59
2017-08-12T21:41:23.342Z,23.69
2017-08-12T21:43:51.050Z,23.70
2017-08-12T21:46:18.711Z,23.74
2017-08-12T21:48:46.422Z,23.68
2017-08-12T21:51:14.242Z,23.46
2017-08-12T21:53:41.908Z,23.26
2017-08-12T21:56:09.746Z,23.20
2017-08-12T21:58:37.497Z,23.11
2017-08-12T22:01:05.099Z,23.13
2017-08-12T22:03:32.678Z,23.05
2017-08-12T22:06:00.316Z,23.01
2017-08-12T22:08:28.280Z,22.90
2017-08-12T22:10:56.003Z,22.92
2017-08-12T22:13:23.815Z,22.89
2017-08-12T22:15:51.733Z,22.79
2017-08-12T22:18:19.554Z,22.54
2017-08-12T22:20:47.269Z,22.40
2017-08-12T22:23:15.284Z,22.33
2017-08-12T22:25:43.146Z,22.23
2017-08-12T22:28:10.996Z,22.21
2017-08-12T22:30:39.034Z,22.13
2017-08-12T22:33:06.745Z,22.16
2017-08-12T22:35:34.414Z,22.30
2017-08-12T22:38:02.076Z,22.08
2017-08-12T22:40:29.744Z,21.99
2017-08-12T22:42:57.606Z,21.84
2017-08-12T22:45:25.263Z,21.78
2017-08-12T22:47:52.918Z,21.85
2017-08-12T22:50:20.771Z,21.78
2017-08-12T22:52:48.363Z,21.84
2017-08-12T22:55:16.118Z,21.73
2017-08-12T22:57:43.738Z,21.58
2017-08-12T23:00:11.646Z,21.54
2017-08-12T23:02:39.362Z,21.37
2017-08-12T23:05:07.176Z,21.43
2017-08-12T23:07:34.836Z,21.37
2017-08-12T23:10:02.490Z,21.48
2017-08-12T23:12:30.163Z,21.32
2017-08-12T23:14:57.842Z,21.15
2017-08-12T23:17:25.791Z,21.22
2017-08-12T23:19:53.764Z,21.32
2017-08-12T23:22:21.627Z,21.27
2017-08-12T23:24:49.380Z,21.25
2017-08-12T23:27:17.156Z,21.17
2017-08-12T23:29:44.992Z,21.21
2017-08-12T23:32:12.671Z,21.07
2017-08-12T23:34:40.528Z,21.03
2017-08-12T23:37:08.213Z,21.14
2017-08-12T23:39:35.995Z,21.29
2017-08-12T23:42:03.935Z,21.20
2017-08-12T23:44:31.610Z,21.27
2017-08-12T23:46:59.484Z,21.10
2017-08-12T23:49:27.413Z,21.15
2017-08-12T23:51:55.378Z,20.96
2017-08-12T23:54:23.078Z,20.59
2017-08-12T23:56:51.111Z,20.50
2017-08-12T23:59:18.713Z,20.42
